Time;durP1;ratioP1;P1;durP2;ratioP2;P2;SDS_P1;SDS_P2;PMS_P1;PMS_P2;Temp;Humidity;BMP_temperature;BMP_pressure;BME280_temperature;BME280_humidity;BME280_pressure;Samples;Min_cycle;Max_cycle;Signal;HPM_P1;HPM_P2
2021/07/21 00:00:43;;;;;;;9.93;4.65;;;;;;;;;;5074274;28;20362;-52
2021/07/21 00:03:09;;;;;;;10.25;4.50;;;;;;;;;;5074940;28;20068;-52
2021/07/21 00:05:36;;;;;;;9.65;4.82;;;;;;;;;;5075008;28;20032;-52
2021/07/21 00:08:03;;;;;;;8.98;4.72;;;;;;;;;;5075087;28;20036;-52
2021/07/21 00:10:31;;;;;;;10.77;4.43;;;;;;;;;;5074946;28;20453;-52
2021/07/21 00:15:48;;;;;;;8.10;4.63;;;;;;;;;;5075134;28;20354;-53
2021/07/21 00:18:46;;;;;;;12.48;4.53;;;;;;;;;;5075149;28;20028;-53
2021/07/21 00:21:01;;;;;;;8.38;4.30;;;;;;;;;;5073669;28;20410;-53
2021/07/21 00:23:28;;;;;;;9.90;4.80;;;;;;;;;;5074666;28;20112;-52
2021/07/21 00:25:56;;;;;;;8.60;4.55;;;;;;;;;;5074623;28;20033;-52
2021/07/21 00:28:22;;;;;;;9.75;4.60;;;;;;;;;;5074373;28;20042;-52
2021/07/21 00:30:48;;;;;;;11.68;4.70;;;;;;;;;;5073752;28;20029;-52
2021/07/21 00:33:14;;;;;;;8.88;4.40;;;;;;;;;;5074660;28;20024;-52
2021/07/21 00:35:41;;;;;;;8.80;4.32;;;;;;;;;;5074933;28;20021;-52
2021/07/21 00:38:07;;;;;;;6.72;4.15;;;;;;;;;;5074435;28;20025;-52
2021/07/21 00:40:33;;;;;;;10.35;4.57;;;;;;;;;;5073973;28;20029;-52
2021/07/21 00:42:59;;;;;;;7.43;4.20;;;;;;;;;;5073584;28;20020;-53
2021/07/21 00:45:25;;;;;;;9.85;5.03;;;;;;;;;;5074720;28;20060;-52
2021/07/21 00:47:51;;;;;;;10.27;4.53;;;;;;;;;;5073798;28;20074;-52
2021/07/21 00:50:17;;;;;;;9.30;4.22;;;;;;;;;;5073897;28;20161;-52
2021/07/21 00:52:44;;;;;;;10.07;4.60;;;;;;;;;;5073401;28;20358;-52
2021/07/21 00:55:13;;;;;;;11.43;4.95;;;;;;;;;;5074347;28;20020;-52
2021/07/21 00:57:39;;;;;;;12.52;4.85;;;;;;;;;;5073388;28;20024;-52
2021/07/21 01:00:07;;;;;;;12.30;5.13;;;;;;;;;;5073978;28;20047;-52
2021/07/21 01:02:33;;;;;;;9.23;4.47;;;;;;;;;;5072236;28;20028;-52
2021/07/21 01:04:59;;;;;;;8.30;4.40;;;;;;;;;;5073948;28;20032;-53
2021/07/21 01:07:25;;;;;;;9.20;4.65;;;;;;;;;;5073462;28;20362;-52
2021/07/21 01:09:51;;;;;;;10.02;4.13;;;;;;;;;;5073543;28;20430;-52
2021/07/21 01:12:21;;;;;;;11.00;5.15;;;;;;;;;;5072858;28;20044;-53
2021/07/21 01:14:47;;;;;;;;;;;;;;;;;;5074287;28;20027;-53
2021/07/21 01:17:19;;;;;;;11.05;4.82;;;;;;;;;;5074276;28;19909;-52
2021/07/21 01:19:45;;;;;;;12.65;5.30;;;;;;;;;;5073630;28;20028;-52
2021/07/21 01:22:15;;;;;;;11.85;4.55;;;;;;;;;;5072446;28;20365;-53
2021/07/21 01:24:50;;;;;;;9.43;4.97;;;;;;;;;;5073283;28;20067;-52
2021/07/21 01:27:25;;;;;;;8.85;4.85;;;;;;;;;;5073747;28;20123;-52
2021/07/21 01:29:55;;;;;;;9.35;4.57;;;;;;;;;;5073407;28;20354;-52
2021/07/21 01:32:24;;;;;;;7.07;4.28;;;;;;;;;;5072817;28;20055;-52
2021/07/21 01:34:51;;;;;;;9.50;4.28;;;;;;;;;;5073042;28;20439;-52
2021/07/21 01:37:18;;;;;;;13.20;4.78;;;;;;;;;;5073596;28;20028;-52
2021/07/21 01:39:47;;;;;;;16.33;5.07;;;;;;;;;;5073283;28;20082;-52
2021/07/21 01:42:15;;;;;;;10.13;4.75;;;;;;;;;;5072260;28;20452;-52
2021/07/21 01:44:43;;;;;;;10.88;4.90;;;;;;;;;;5073362;28;20035;-52
2021/07/21 01:47:09;;;;;;;7.88;4.72;;;;;;;;;;5073342;28;20102;-52
2021/07/21 01:49:37;;;;;;;15.52;4.45;;;;;;;;;;5073007;28;20069;-52
2021/07/21 01:52:05;;;;;;;16.05;5.57;;;;;;;;;;5083215;28;20028;-52
2021/07/21 01:54:32;;;;;;;8.88;4.22;;;;;;;;;;5092799;28;20528;-52
2021/07/21 01:56:59;;;;;;;11.30;4.63;;;;;;;;;;5093588;28;20678;-52
2021/07/21 01:59:25;;;;;;;10.85;5.30;;;;;;;;;;5093428;28;20055;-52
2021/07/21 02:01:52;;;;;;;10.73;4.38;;;;;;;;;;5092707;28;20305;-52
2021/07/21 02:04:19;;;;;;;15.15;5.22;;;;;;;;;;5093106;28;20020;-52
2021/07/21 02:06:45;;;;;;;7.60;3.63;;;;;;;;;;5093457;28;20043;-52
2021/07/21 02:09:11;;;;;;;9.48;4.45;;;;;;;;;;5092650;28;20017;-52
2021/07/21 02:11:41;;;;;;;7.85;4.35;;;;;;;;;;5092636;28;20106;-53
2021/07/21 02:14:07;;;;;;;12.63;4.65;;;;;;;;;;5093054;28;20028;-52
2021/07/21 02:16:35;;;;;;;9.55;4.85;;;;;;;;;;5082323;28;20107;-52
2021/07/21 02:19:03;;;;;;;11.52;4.88;;;;;;;;;;5092870;28;20233;-52
2021/07/21 02:21:29;;;;;;;9.57;4.20;;;;;;;;;;5092273;28;20032;-52
2021/07/21 02:23:55;;;;;;;8.20;3.88;;;;;;;;;;5092545;28;20016;-52
2021/07/21 02:26:22;;;;;;;9.20;4.00;;;;;;;;;;5092872;28;20048;-52
2021/07/21 02:28:49;;;;;;;9.73;4.35;;;;;;;;;;5093150;28;20411;-53
2021/07/21 02:31:19;;;;;;;10.05;4.68;;;;;;;;;;5091783;28;20020;-52
2021/07/21 02:33:47;;;;;;;8.60;4.43;;;;;;;;;;5092925;28;20446;-52
2021/07/21 02:36:14;;;;;;;7.97;4.15;;;;;;;;;;5092954;28;20028;-52
2021/07/21 02:38:40;;;;;;;12.40;5.65;;;;;;;;;;5093044;28;20074;-53
2021/07/21 02:41:06;;;;;;;10.02;5.32;;;;;;;;;;5091930;28;20028;-52
2021/07/21 02:43:33;;;;;;;10.00;5.07;;;;;;;;;;5092943;28;20024;-52
2021/07/21 02:45:59;;;;;;;14.00;4.38;;;;;;;;;;5092717;28;20031;-52
2021/07/21 02:48:26;;;;;;;10.05;5.22;;;;;;;;;;5092491;28;20357;-52
2021/07/21 02:50:56;;;;;;;11.35;5.15;;;;;;;;;;5081587;28;20113;-52
2021/07/21 02:53:31;;;;;;;9.27;4.65;;;;;;;;;;5072200;28;20028;-52
2021/07/21 02:56:02;;;;;;;7.95;4.10;;;;;;;;;;5072504;28;20474;-52
2021/07/21 02:58:32;;;;;;;9.25;4.55;;;;;;;;;;5072316;28;20442;-52
2021/07/21 03:00:59;;;;;;;9.18;4.00;;;;;;;;;;5071796;28;20028;-52
2021/07/21 03:03:26;;;;;;;13.60;4.57;;;;;;;;;;5072513;28;20067;-52
2021/07/21 03:05:55;;;;;;;10.85;4.88;;;;;;;;;;5072151;28;20492;-52
2021/07/21 03:08:22;;;;;;;10.98;5.05;;;;;;;;;;5072089;28;20029;-52
2021/07/21 03:10:49;;;;;;;12.63;4.75;;;;;;;;;;5071639;28;20021;-52
2021/07/21 03:13:20;;;;;;;8.05;4.05;;;;;;;;;;5072429;28;20029;-52
2021/07/21 03:15:47;;;;;;;8.43;4.32;;;;;;;;;;5072127;28;20017;-52
2021/07/21 03:18:15;;;;;;;10.75;4.90;;;;;;;;;;5071849;28;20028;-52
2021/07/21 03:20:42;;;;;;;9.00;4.50;;;;;;;;;;5072932;28;20401;-52
2021/07/21 03:23:08;;;;;;;8.25;3.83;;;;;;;;;;5075579;28;20031;-52
2021/07/21 03:25:37;;;;;;;12.38;4.40;;;;;;;;;;5074167;28;20258;-52
2021/07/21 03:28:05;;;;;;;12.63;4.65;;;;;;;;;;5091703;28;20043;-52
2021/07/21 03:30:31;;;;;;;12.75;5.65;;;;;;;;;;5095388;28;20031;-51
2021/07/21 03:32:57;;;;;;;10.45;4.90;;;;;;;;;;5078380;28;20119;-52
2021/07/21 03:35:25;;;;;;;8.40;4.78;;;;;;;;;;5075505;28;20465;-52
2021/07/21 03:37:52;;;;;;;12.30;4.68;;;;;;;;;;5075349;28;20105;-52
2021/07/21 03:40:19;;;;;;;9.52;4.50;;;;;;;;;;5075219;28;20055;-52
2021/07/21 03:42:45;;;;;;;10.13;5.13;;;;;;;;;;5074529;28;20052;-52
2021/07/21 03:45:15;;;;;;;10.27;4.50;;;;;;;;;;5092909;28;20338;-52
2021/07/21 03:47:42;;;;;;;11.18;4.85;;;;;;;;;;5094928;28;20040;-52
2021/07/21 03:50:08;;;;;;;12.52;4.85;;;;;;;;;;5095578;28;20020;-52
2021/07/21 03:52:35;;;;;;;11.77;4.55;;;;;;;;;;5094729;28;20024;-52
2021/07/21 03:55:02;;;;;;;7.82;3.90;;;;;;;;;;5095666;28;20020;-52
2021/07/21 03:57:28;;;;;;;11.50;4.75;;;;;;;;;;5094278;28;20028;-52
2021/07/21 03:59:54;;;;;;;11.25;4.82;;;;;;;;;;5094371;28;20031;-52
2021/07/21 04:02:20;;;;;;;15.60;4.97;;;;;;;;;;5093588;28;20069;-52
2021/07/21 04:04:47;;;;;;;11.88;5.32;;;;;;;;;;5094260;28;20344;-52
2021/07/21 04:07:17;;;;;;;9.38;4.53;;;;;;;;;;5094107;28;20449;-52
2021/07/21 04:09:46;;;;;;;9.95;5.13;;;;;;;;;;5094251;28;20092;-52
2021/07/21 04:12:14;;;;;;;12.77;5.43;;;;;;;;;;5094531;28;20055;-52
2021/07/21 04:14:41;;;;;;;9.35;4.80;;;;;;;;;;5094479;28;20024;-52
2021/07/21 04:17:08;;;;;;;10.27;5.28;;;;;;;;;;5094978;28;20032;-52
2021/07/21 04:19:34;;;;;;;11.02;4.90;;;;;;;;;;5095108;28;20057;-52
2021/07/21 04:22:00;;;;;;;11.02;5.22;;;;;;;;;;5094436;28;20063;-52
2021/07/21 04:24:26;;;;;;;12.23;4.13;;;;;;;;;;5095111;28;20056;-52
2021/07/21 04:26:52;;;;;;;10.48;4.55;;;;;;;;;;5094681;28;20036;-52
2021/07/21 04:29:20;;;;;;;11.43;5.53;;;;;;;;;;5092938;28;20081;-52
2021/07/21 04:31:47;;;;;;;12.63;4.65;;;;;;;;;;5090385;28;20573;-52
2021/07/21 04:34:14;;;;;;;11.07;5.30;;;;;;;;;;5093582;28;20036;-52
2021/07/21 04:36:41;;;;;;;9.95;4.47;;;;;;;;;;5094999;28;20028;-52
2021/07/21 04:39:07;;;;;;;9.10;4.50;;;;;;;;;;5094424;28;20169;-52
2021/07/21 04:41:34;;;;;;;13.23;4.63;;;;;;;;;;5094257;28;20051;-52
2021/07/21 04:44:01;;;;;;;10.52;4.70;;;;;;;;;;5094119;28;20024;-52
2021/07/21 04:46:28;;;;;;;14.18;4.90;;;;;;;;;;5094629;28;20112;-52
2021/07/21 04:48:54;;;;;;;9.25;4.25;;;;;;;;;;5094121;28;20039;-52
2021/07/21 04:51:22;;;;;;;14.48;5.05;;;;;;;;;;5093976;28;20030;-52
2021/07/21 04:53:51;;;;;;;16.35;5.80;;;;;;;;;;5094377;28;20028;-52
2021/07/21 04:56:17;;;;;;;16.92;5.72;;;;;;;;;;5094222;28;20020;-52
2021/07/21 04:58:43;;;;;;;17.42;5.18;;;;;;;;;;5094249;28;20039;-52
2021/07/21 05:01:11;;;;;;;12.35;5.13;;;;;;;;;;5093790;28;20020;-52
2021/07/21 05:03:37;;;;;;;12.77;4.82;;;;;;;;;;5094039;28;20038;-52
2021/07/21 05:06:03;;;;;;;9.65;4.45;;;;;;;;;;5094173;28;20115;-52
2021/07/21 05:08:29;;;;;;;10.30;4.38;;;;;;;;;;5094052;28;20032;-52
2021/07/21 05:10:55;;;;;;;12.13;5.00;;;;;;;;;;5093151;28;20020;-52
2021/07/21 05:13:21;;;;;;;18.25;4.80;;;;;;;;;;5094086;28;20085;-52
2021/07/21 05:15:48;;;;;;;11.23;4.57;;;;;;;;;;5093836;28;20032;-52
2021/07/21 05:18:14;;;;;;;16.00;4.72;;;;;;;;;;5093811;28;20028;-52
2021/07/21 05:20:40;;;;;;;9.45;4.97;;;;;;;;;;5093133;28;20024;-53
2021/07/21 05:23:07;;;;;;;10.27;4.05;;;;;;;;;;5094043;28;20115;-52
2021/07/21 05:25:33;;;;;;;17.52;5.57;;;;;;;;;;5094131;28;20035;-51
2021/07/21 05:28:00;;;;;;;12.38;4.95;;;;;;;;;;5093747;28;20461;-52
2021/07/21 05:30:26;;;;;;;11.75;5.28;;;;;;;;;;5093183;28;20073;-51
2021/07/21 05:32:52;;;;;;;25.45;6.07;;;;;;;;;;5093143;28;20052;-51
2021/07/21 05:35:18;;;;;;;7.68;4.68;;;;;;;;;;5093801;28;20426;-51
2021/07/21 05:37:44;;;;;;;11.13;5.00;;;;;;;;;;5093372;28;20081;-52
2021/07/21 05:40:10;;;;;;;14.52;5.18;;;;;;;;;;5093590;28;20099;-51
2021/07/21 05:42:36;;;;;;;16.55;6.43;;;;;;;;;;5092205;28;20051;-51
2021/07/21 05:45:02;;;;;;;12.27;4.57;;;;;;;;;;5093078;28;20073;-51
2021/07/21 05:47:28;;;;;;;12.43;5.30;;;;;;;;;;5093195;28;20435;-51
2021/07/21 05:49:54;;;;;;;14.00;5.18;;;;;;;;;;5093267;28;20063;-52
2021/07/21 05:52:20;;;;;;;9.43;4.78;;;;;;;;;;5092614;28;20028;-51
2021/07/21 05:54:46;;;;;;;17.95;6.03;;;;;;;;;;5093335;28;20048;-51
2021/07/21 05:57:12;;;;;;;14.45;6.28;;;;;;;;;;5093244;28;20416;-51
2021/07/21 05:59:38;;;;;;;10.70;5.43;;;;;;;;;;5093380;28;20016;-51
2021/07/21 06:02:04;;;;;;;9.05;5.15;;;;;;;;;;5092782;28;20024;-51
2021/07/21 06:04:30;;;;;;;10.13;4.53;;;;;;;;;;5093180;28;20024;-51
2021/07/21 06:06:56;;;;;;;10.02;4.95;;;;;;;;;;5093079;28;20085;-52
2021/07/21 06:09:23;;;;;;;11.68;5.00;;;;;;;;;;5093076;28;20020;-52
2021/07/21 06:11:49;;;;;;;12.05;5.30;;;;;;;;;;5092478;28;20111;-51
2021/07/21 06:14:15;;;;;;;10.70;4.78;;;;;;;;;;5092555;28;20513;-52
2021/07/21 06:16:41;;;;;;;10.43;5.15;;;;;;;;;;5093021;28;20111;-52
2021/07/21 06:19:08;;;;;;;12.00;5.50;;;;;;;;;;5092777;28;20031;-51
2021/07/21 06:21:34;;;;;;;8.88;4.65;;;;;;;;;;5092391;28;20028;-51
2021/07/21 06:24:01;;;;;;;13.85;6.13;;;;;;;;;;5092895;28;20035;-51
2021/07/21 06:26:27;;;;;;;14.93;5.78;;;;;;;;;;5092649;28;20460;-52
2021/07/21 06:28:53;;;;;;;13.90;5.68;;;;;;;;;;5092416;28;20032;-52
2021/07/21 06:31:18;;;;;;;12.52;5.50;;;;;;;;;;5091910;28;20065;-51
2021/07/21 06:33:44;;;;;;;13.90;6.20;;;;;;;;;;5092951;28;20399;-51
2021/07/21 06:36:12;;;;;;;14.00;6.07;;;;;;;;;;5092099;28;20107;-51
2021/07/21 06:38:38;;;;;;;12.27;5.90;;;;;;;;;;5092601;28;20335;-51
2021/07/21 06:41:04;;;;;;;12.98;4.97;;;;;;;;;;5091753;28;20035;-52
2021/07/21 06:43:30;;;;;;;10.70;4.93;;;;;;;;;;5092736;28;20020;-51
2021/07/21 06:45:57;;;;;;;13.27;5.80;;;;;;;;;;5092678;28;20058;-52
2021/07/21 06:48:23;;;;;;;10.30;5.38;;;;;;;;;;5092664;28;20127;-51
2021/07/21 06:50:49;;;;;;;11.45;5.28;;;;;;;;;;5091876;28;20107;-51
2021/07/21 06:53:15;;;;;;;16.23;6.20;;;;;;;;;;5092687;28;20032;-52
2021/07/21 06:55:41;;;;;;;10.05;5.10;;;;;;;;;;5094885;28;20016;-52
2021/07/21 06:58:07;;;;;;;12.10;5.00;;;;;;;;;;5096409;28;20055;-51
2021/07/21 07:00:33;;;;;;;8.65;5.13;;;;;;;;;;5095720;28;20104;-52
2021/07/21 07:02:59;;;;;;;12.63;6.00;;;;;;;;;;5097090;28;20517;-52
2021/07/21 07:05:25;;;;;;;12.35;5.72;;;;;;;;;;5096551;28;20030;-51
2021/07/21 07:07:51;;;;;;;13.80;6.47;;;;;;;;;;5096580;28;20069;-51
2021/07/21 07:10:18;;;;;;;14.50;6.78;;;;;;;;;;5096331;28;20047;-52
2021/07/21 07:12:45;;;;;;;14.85;6.68;;;;;;;;;;5095748;28;20028;-52
2021/07/21 07:15:11;;;;;;;14.10;6.70;;;;;;;;;;5096227;28;20069;-52
2021/07/21 07:17:37;;;;;;;12.88;6.53;;;;;;;;;;5096297;28;20032;-52
2021/07/21 07:20:04;;;;;;;14.23;6.60;;;;;;;;;;5096264;28;20032;-52
2021/07/21 07:22:30;;;;;;;16.75;6.97;;;;;;;;;;5095525;28;20050;-52
2021/07/21 07:24:56;;;;;;;17.65;6.85;;;;;;;;;;5095935;28;20024;-52
2021/07/21 07:27:22;;;;;;;16.17;6.85;;;;;;;;;;5095865;28;20040;-51
2021/07/21 07:29:49;;;;;;;16.27;7.25;;;;;;;;;;5095855;28;20063;-52
2021/07/21 07:32:15;;;;;;;11.13;5.88;;;;;;;;;;5095681;28;20086;-52
2021/07/21 07:34:41;;;;;;;10.25;5.80;;;;;;;;;;5096498;28;20457;-52
2021/07/21 07:37:07;;;;;;;16.02;6.25;;;;;;;;;;5095641;28;20069;-52
2021/07/21 07:39:33;;;;;;;13.32;6.63;;;;;;;;;;5095906;28;20115;-52
2021/07/21 07:42:00;;;;;;;10.93;6.32;;;;;;;;;;5094701;28;20028;-52
2021/07/21 07:44:26;;;;;;;11.93;6.10;;;;;;;;;;5096221;28;20031;-52
2021/07/21 07:46:52;;;;;;;19.08;6.80;;;;;;;;;;5095164;28;20047;-51
2021/07/21 07:49:18;;;;;;;17.33;6.40;;;;;;;;;;5096003;28;20028;-51
2021/07/21 07:51:44;;;;;;;16.17;6.13;;;;;;;;;;5090595;28;20557;-51
2021/07/21 07:54:10;;;;;;;17.50;7.03;;;;;;;;;;5084268;28;20138;-51
2021/07/21 07:56:36;;;;;;;15.73;6.90;;;;;;;;;;5080566;28;20353;-51
2021/07/21 07:59:02;;;;;;;22.15;7.03;;;;;;;;;;5095874;28;20061;-52
2021/07/21 08:01:28;;;;;;;11.48;6.00;;;;;;;;;;5084134;28;20111;-51
2021/07/21 08:03:55;;;;;;;15.65;6.43;;;;;;;;;;5075199;28;20450;-52
2021/07/21 08:06:21;;;;;;;15.55;6.22;;;;;;;;;;5074876;28;20039;-51
2021/07/21 08:08:47;;;;;;;14.68;6.28;;;;;;;;;;5075114;28;20032;-51
2021/07/21 08:11:13;;;;;;;16.52;6.50;;;;;;;;;;5073988;28;20107;-52
2021/07/21 08:13:40;;;;;;;13.88;6.72;;;;;;;;;;5075256;28;20056;-51
2021/07/21 08:16:06;;;;;;;14.18;5.95;;;;;;;;;;5074853;28;20017;-52
2021/07/21 08:18:32;;;;;;;11.48;6.32;;;;;;;;;;5074749;28;20438;-51
2021/07/21 08:20:58;;;;;;;13.57;6.28;;;;;;;;;;5074047;28;20039;-52
2021/07/21 08:23:24;;;;;;;20.65;7.28;;;;;;;;;;5074960;28;20049;-51
2021/07/21 08:25:51;;;;;;;17.40;6.70;;;;;;;;;;5074679;28;20028;-51
2021/07/21 08:28:17;;;;;;;14.50;6.25;;;;;;;;;;5074369;28;20048;-51
2021/07/21 08:30:44;;;;;;;13.70;6.65;;;;;;;;;;5074512;28;20028;-51
2021/07/21 08:33:10;;;;;;;16.45;6.45;;;;;;;;;;5074069;28;20372;-51
2021/07/21 08:35:36;;;;;;;15.77;6.55;;;;;;;;;;5075018;28;20422;-51
2021/07/21 08:38:03;;;;;;;15.23;6.35;;;;;;;;;;5074933;28;20052;-51
2021/07/21 08:40:29;;;;;;;14.82;6.53;;;;;;;;;;5074656;28;20154;-51
2021/07/21 08:42:55;;;;;;;22.30;6.82;;;;;;;;;;5073564;28;20025;-51
2021/07/21 08:45:22;;;;;;;11.40;5.68;;;;;;;;;;5074330;28;20093;-51
2021/07/21 08:47:48;;;;;;;20.48;5.95;;;;;;;;;;5073942;28;20040;-51
2021/07/21 08:50:15;;;;;;;11.82;5.80;;;;;;;;;;5074080;28;20346;-52
2021/07/21 08:52:41;;;;;;;17.05;6.10;;;;;;;;;;5073685;28;20372;-52
2021/07/21 08:55:09;;;;;;;11.13;5.50;;;;;;;;;;5073920;28;20107;-51
2021/07/21 08:57:35;;;;;;;16.17;6.35;;;;;;;;;;5074031;28;20036;-51
2021/07/21 09:00:01;;;;;;;12.13;6.43;;;;;;;;;;5074206;28;20089;-51
2021/07/21 09:02:28;;;;;;;12.57;5.57;;;;;;;;;;5073044;28;20032;-51
2021/07/21 09:04:54;;;;;;;11.95;6.43;;;;;;;;;;5074216;28;20086;-51
2021/07/21 09:07:20;;;;;;;9.70;5.22;;;;;;;;;;5073720;28;20036;-52
2021/07/21 09:09:46;;;;;;;12.68;5.82;;;;;;;;;;5073762;28;20485;-51
2021/07/21 09:12:13;;;;;;;12.18;4.78;;;;;;;;;;5073057;28;20062;-51
2021/07/21 09:14:39;;;;;;;15.40;5.75;;;;;;;;;;5073613;28;20044;-51
2021/07/21 09:17:12;;;;;;;14.30;6.80;;;;;;;;;;5073280;28;20024;-51
2021/07/21 09:19:42;;;;;;;13.48;7.35;;;;;;;;;;5073438;28;20024;-51
2021/07/21 09:22:12;;;;;;;9.35;5.18;;;;;;;;;;5072874;28;20044;-52
2021/07/21 09:24:38;;;;;;;10.43;5.20;;;;;;;;;;5074086;28;20033;-52
2021/07/21 09:27:04;;;;;;;11.82;5.35;;;;;;;;;;5073113;28;20048;-51
2021/07/21 09:29:30;;;;;;;15.85;5.82;;;;;;;;;;5073065;28;20039;-51
2021/07/21 09:31:59;;;;;;;15.73;5.35;;;;;;;;;;5073030;28;20017;-51
2021/07/21 09:34:26;;;;;;;11.13;5.50;;;;;;;;;;5073575;28;20563;-51
2021/07/21 09:37:04;;;;;;;9.30;5.45;;;;;;;;;;5073312;28;20029;-51
2021/07/21 09:39:38;;;;;;;15.13;5.75;;;;;;;;;;5073631;28;20307;-52
2021/07/21 09:42:05;;;;;;;18.33;5.70;;;;;;;;;;5072018;28;20040;-52
2021/07/21 09:44:32;;;;;;;15.32;5.65;;;;;;;;;;5073625;28;20415;-51
2021/07/21 09:47:10;;;;;;;11.65;5.55;;;;;;;;;;5073242;28;20039;-52
2021/07/21 09:49:37;;;;;;;12.35;5.15;;;;;;;;;;5073188;28;20031;-51
2021/07/21 09:52:15;;;;;;;9.27;5.07;;;;;;;;;;5072298;28;20470;-52
2021/07/21 09:54:41;;;;;;;9.05;5.85;;;;;;;;;;5073148;28;20032;-52
2021/07/21 09:57:13;;;;;;;9.82;5.70;;;;;;;;;;5073080;28;20033;-51
2021/07/21 09:59:40;;;;;;;10.23;5.13;;;;;;;;;;5073371;28;20012;-52
2021/07/21 10:02:27;;;;;;;12.07;5.65;;;;;;;;;;5072624;28;20047;-52
2021/07/21 10:04:54;;;;;;;9.63;5.40;;;;;;;;;;5072888;28;20024;-52
2021/07/21 10:10:15;;;;;;;11.97;5.10;;;;;;;;;;5073440;28;20070;-52
2021/07/21 10:12:41;;;;;;;13.38;5.30;;;;;;;;;;5071904;28;20033;-52
2021/07/21 10:15:08;;;;;;;16.85;6.10;;;;;;;;;;5072871;28;20020;-51
2021/07/21 10:17:34;;;;;;;11.43;5.55;;;;;;;;;;5072733;28;20021;-52
2021/07/21 10:20:00;;;;;;;13.85;5.47;;;;;;;;;;5072987;28;20021;-52
2021/07/21 10:22:26;;;;;;;13.68;5.32;;;;;;;;;;5071887;28;20555;-51
2021/07/21 10:24:52;;;;;;;10.63;5.53;;;;;;;;;;5072953;28;20508;-51
2021/07/21 10:27:19;;;;;;;12.15;6.43;;;;;;;;;;5072510;28;20037;-51
2021/07/21 10:29:45;;;;;;;13.38;5.60;;;;;;;;;;5074109;28;20029;-52
2021/07/21 10:32:14;;;;;;;11.15;5.18;;;;;;;;;;5079173;28;20059;-51
2021/07/21 10:34:42;;;;;;;13.65;6.60;;;;;;;;;;5079569;28;20024;-51
2021/07/21 10:37:08;;;;;;;14.77;5.60;;;;;;;;;;5079159;28;20020;-52
2021/07/21 10:39:35;;;;;;;13.55;5.47;;;;;;;;;;5079700;28;20028;-51
2021/07/21 10:42:05;;;;;;;15.60;5.75;;;;;;;;;;5078861;28;20021;-53
2021/07/21 10:44:31;;;;;;;;;;;;;;;;;;5079461;28;20029;-52
2021/07/21 10:46:59;;;;;;;11.15;6.13;;;;;;;;;;5078795;28;19913;-51
2021/07/21 10:49:35;;;;;;;10.60;6.03;;;;;;;;;;5079573;28;20028;-51
2021/07/21 10:54:59;;;;;;;20.58;7.05;;;;;;;;;;5079007;28;20047;-51
2021/07/21 11:00:11;;;;;;;13.85;5.68;;;;;;;;;;5079283;28;20469;-51
2021/07/21 11:02:37;;;;;;;15.45;6.75;;;;;;;;;;5077967;28;20438;-51
2021/07/21 11:05:05;;;;;;;14.32;6.30;;;;;;;;;;5079200;28;20131;-51
2021/07/21 11:07:50;;;;;;;15.45;6.25;;;;;;;;;;5079135;28;20044;-51
2021/07/21 11:10:29;;;;;;;10.65;5.88;;;;;;;;;;5079117;28;20036;-51
2021/07/21 11:12:55;;;;;;;14.55;5.75;;;;;;;;;;5078480;28;20082;-52
2021/07/21 11:15:37;;;;;;;11.60;5.75;;;;;;;;;;5079063;28;20032;-51
2021/07/21 11:18:24;;;;;;;13.15;5.50;;;;;;;;;;5079014;28;20028;-51
2021/07/21 11:20:56;;;;;;;13.55;5.93;;;;;;;;;;5078283;28;20031;-52
2021/07/21 11:23:40;;;;;;;11.27;5.80;;;;;;;;;;5078611;28;20087;-52
2021/07/21 11:26:25;;;;;;;15.13;6.50;;;;;;;;;;5079089;28;20118;-51
2021/07/21 11:28:51;;;;;;;12.55;6.13;;;;;;;;;;5077997;28;20035;-51
2021/07/21 11:31:17;;;;;;;13.32;6.10;;;;;;;;;;5078093;28;20432;-51
2021/07/21 11:33:44;;;;;;;13.43;6.22;;;;;;;;;;5079313;28;20020;-52
2021/07/21 11:36:10;;;;;;;12.98;6.28;;;;;;;;;;5079050;28;20031;-52
2021/07/21 11:38:52;;;;;;;15.82;6.40;;;;;;;;;;5079066;28;20024;-51
2021/07/21 11:41:37;;;;;;;11.13;5.72;;;;;;;;;;5075094;28;20468;-51
2021/07/21 11:44:03;;;;;;;13.98;5.85;;;;;;;;;;5075593;28;20025;-51
2021/07/21 11:46:29;;;;;;;11.27;4.80;;;;;;;;;;5075513;28;20087;-51
2021/07/21 11:48:55;;;;;;;20.40;6.43;;;;;;;;;;5075573;28;20119;-52
2021/07/21 11:51:21;;;;;;;18.67;6.93;;;;;;;;;;5074591;28;20028;-52
2021/07/21 11:53:47;;;;;;;16.02;7.15;;;;;;;;;;5075263;28;20021;-51
2021/07/21 11:56:13;;;;;;;18.25;6.75;;;;;;;;;;5075605;28;20120;-51
2021/07/21 11:58:39;;;;;;;13.27;6.00;;;;;;;;;;5074826;28;20112;-51
2021/07/21 12:01:05;;;;;;;12.52;6.30;;;;;;;;;;5074600;28;20471;-51
2021/07/21 12:03:43;;;;;;;16.88;7.00;;;;;;;;;;5075072;28;20107;-51
2021/07/21 12:06:09;;;;;;;10.88;6.10;;;;;;;;;;5075608;28;20031;-51
2021/07/21 12:08:35;;;;;;;14.25;6.32;;;;;;;;;;5074988;28;20036;-51
2021/07/21 12:11:12;;;;;;;17.27;6.18;;;;;;;;;;5074507;28;20032;-52
2021/07/21 12:13:39;;;;;;;15.20;7.03;;;;;;;;;;5075299;28;20388;-51
2021/07/21 12:16:06;;;;;;;13.57;6.85;;;;;;;;;;5075009;28;20020;-51
2021/07/21 12:18:32;;;;;;;22.48;8.02;;;;;;;;;;5074429;28;20299;-51
2021/07/21 12:21:05;;;;;;;21.48;6.60;;;;;;;;;;5074079;28;20032;-52
2021/07/21 12:23:31;;;;;;;12.23;5.97;;;;;;;;;;5074978;28;20351;-51
2021/07/21 12:26:03;;;;;;;16.05;6.30;;;;;;;;;;5074919;28;20040;-51
2021/07/21 12:28:29;;;;;;;14.70;6.40;;;;;;;;;;5074713;28;20028;-52
2021/07/21 12:30:58;;;;;;;12.25;6.07;;;;;;;;;;5073817;28;20350;-51
2021/07/21 12:33:24;;;;;;;13.82;6.13;;;;;;;;;;5074480;28;20021;-51
2021/07/21 12:35:50;;;;;;;16.83;6.65;;;;;;;;;;5074657;28;20023;-52
2021/07/21 12:38:16;;;;;;;18.60;6.72;;;;;;;;;;5074816;28;20028;-51
2021/07/21 12:40:42;;;;;;;11.27;5.68;;;;;;;;;;5073690;28;20020;-51
2021/07/21 12:43:14;;;;;;;13.02;5.50;;;;;;;;;;5074600;28;20349;-51
2021/07/21 12:45:40;;;;;;;18.58;7.18;;;;;;;;;;5074401;28;20029;-51
2021/07/21 12:48:06;;;;;;;14.80;6.45;;;;;;;;;;5073480;28;20082;-51
2021/07/21 12:50:36;;;;;;;14.65;6.38;;;;;;;;;;5073904;28;20009;-51
2021/07/21 12:53:07;;;;;;;14.52;5.93;;;;;;;;;;5073524;28;20029;-51
2021/07/21 12:55:35;;;;;;;10.90;5.28;;;;;;;;;;5074298;28;20457;-51
2021/07/21 12:58:03;;;;;;;10.40;5.95;;;;;;;;;;5074495;28;20028;-51
2021/07/21 13:00:31;;;;;;;16.02;6.65;;;;;;;;;;5073452;28;20021;-51
2021/07/21 13:03:00;;;;;;;10.98;6.25;;;;;;;;;;5073702;28;20345;-51
2021/07/21 13:05:50;;;;;;;11.50;6.25;;;;;;;;;;5074344;28;20032;-51
2021/07/21 13:08:28;;;;;;;13.03;6.00;;;;;;;;;;5070783;28;20062;-51
2021/07/21 13:11:13;;;;;;;14.13;6.28;;;;;;;;;;5072962;28;20442;-51
2021/07/21 13:13:43;;;;;;;13.30;6.15;;;;;;;;;;5073811;28;20020;-51
2021/07/21 13:16:10;;;;;;;13.93;5.80;;;;;;;;;;5074044;28;20025;-51
2021/07/21 13:18:46;;;;;;;12.15;5.25;;;;;;;;;;5073667;28;20035;-51
2021/07/21 13:21:22;;;;;;;12.23;5.82;;;;;;;;;;5073064;28;20032;-52
2021/07/21 13:23:48;;;;;;;13.23;5.63;;;;;;;;;;5073723;28;20032;-51
2021/07/21 13:26:14;;;;;;;11.68;5.97;;;;;;;;;;5073546;28;20029;-51
2021/07/21 13:28:45;;;;;;;13.55;5.85;;;;;;;;;;5073505;28;20468;-52
2021/07/21 13:31:13;;;;;;;13.30;6.18;;;;;;;;;;5073095;28;20013;-51
2021/07/21 13:33:39;;;;;;;13.93;6.63;;;;;;;;;;5073181;28;20060;-51
2021/07/21 13:36:25;;;;;;;18.60;6.38;;;;;;;;;;5073073;28;20032;-51
2021/07/21 13:38:58;;;;;;;13.80;6.40;;;;;;;;;;5073603;28;20119;-51
2021/07/21 13:41:45;;;;;;;10.77;5.78;;;;;;;;;;5072515;28;20484;-51
2021/07/21 13:44:12;;;;;;;14.30;5.75;;;;;;;;;;5068983;28;20037;-51
2021/07/21 13:46:47;;;;;;;10.07;5.38;;;;;;;;;;5073312;28;20060;-51
2021/07/21 13:49:13;;;;;;;11.50;5.50;;;;;;;;;;5073298;28;20663;-51
2021/07/21 13:51:46;;;;;;;12.85;5.93;;;;;;;;;;5072816;28;20016;-51
2021/07/21 13:54:15;;;;;;;9.65;5.72;;;;;;;;;;5080849;28;20058;-51
2021/07/21 13:56:45;;;;;;;9.65;5.53;;;;;;;;;;5093790;28;20028;-51
2021/07/21 13:59:11;;;;;;;12.23;4.80;;;;;;;;;;5093225;28;20457;-51
2021/07/21 14:01:37;;;;;;;14.40;6.18;;;;;;;;;;5082575;28;20017;-51
2021/07/21 14:04:04;;;;;;;11.30;5.75;;;;;;;;;;5072511;28;20020;-52
2021/07/21 14:06:30;;;;;;;13.80;5.10;;;;;;;;;;5073148;28;20028;-52
2021/07/21 14:08:57;;;;;;;19.77;6.07;;;;;;;;;;5072797;28;20070;-51
2021/07/21 14:11:23;;;;;;;11.05;5.20;;;;;;;;;;5072300;28;20446;-51
2021/07/21 14:13:49;;;;;;;14.23;4.80;;;;;;;;;;5072795;28;20021;-52
2021/07/21 14:16:15;;;;;;;10.95;5.55;;;;;;;;;;5074737;28;20025;-51
2021/07/21 14:18:41;;;;;;;14.95;5.35;;;;;;;;;;5092781;28;20460;-51
2021/07/21 14:21:07;;;;;;;10.05;5.45;;;;;;;;;;5083477;28;20074;-52
2021/07/21 14:23:35;;;;;;;11.85;5.35;;;;;;;;;;5081241;28;20447;-52
2021/07/21 14:26:01;;;;;;;14.25;5.88;;;;;;;;;;5089184;28;20110;-52
2021/07/21 14:28:27;;;;;;;11.38;5.82;;;;;;;;;;5091242;28;20032;-52
2021/07/21 14:30:53;;;;;;;9.88;5.47;;;;;;;;;;5091696;28;20085;-52
2021/07/21 14:33:18;;;;;;;12.45;5.30;;;;;;;;;;5082536;28;20114;-52
2021/07/21 14:35:44;;;;;;;11.73;5.10;;;;;;;;;;5091240;28;20024;-53
2021/07/21 14:38:10;;;;;;;13.77;6.20;;;;;;;;;;5092985;28;20028;-52
2021/07/21 14:40:36;;;;;;;12.98;5.28;;;;;;;;;;5092104;28;20020;-52
2021/07/21 14:43:02;;;;;;;12.45;5.50;;;;;;;;;;5092869;28;20345;-53
2021/07/21 14:45:28;;;;;;;10.02;5.45;;;;;;;;;;5092518;28;20437;-53
2021/07/21 14:47:54;;;;;;;10.20;5.65;;;;;;;;;;5085595;28;20045;-52